Time;durP1;ratioP1;P1;durP2;ratioP2;P2;SDS_P1;SDS_P2;PMS_P1;PMS_P2;Temp;Humidity;BMP_temperature;BMP_pressure;BME280_temperature;BME280_humidity;BME280_pressure;Samples;Min_cycle;Max_cycle;Signal;HPM_P1;HPM_P2
2020/12/09 00:01:29;;;;;;;55.40;30.60;;;;;;;13.75;56.54;100661.69;4995471;28;20046;-60
2020/12/09 00:03:56;;;;;;;52.88;28.92;;;;;;;13.75;56.01;100657.16;4977137;28;20046;-60
2020/12/09 00:06:23;;;;;;;57.97;30.40;;;;;;;13.76;56.02;100645.38;4994182;28;20038;-60
2020/12/09 00:08:49;;;;;;;;;;;;;;;13.54;57.04;100654.88;4995177;28;20042;-61
2020/12/09 00:11:14;;;;;;;51.90;28.03;;;;;;;13.55;57.12;100660.00;4995119;28;20251;-60
2020/12/09 00:13:40;;;;;;;65.17;30.93;;;;;;;13.58;56.55;100648.81;4995315;28;20042;-60
2020/12/09 00:16:05;;;;;;;61.63;30.37;;;;;;;13.65;56.62;100653.34;4994381;28;20045;-61
2020/12/09 00:18:31;;;;;;;51.43;27.63;;;;;;;13.61;56.21;100661.84;4995473;28;20061;-60
2020/12/09 00:20:56;;;;;;;57.77;27.83;;;;;;;13.48;56.68;100646.63;4994220;28;20133;-60
2020/12/09 00:23:22;;;;;;;59.53;27.73;;;;;;;13.50;56.74;100649.09;4994847;28;20038;-60
2020/12/09 00:25:47;;;;;;;62.97;29.17;;;;;;;13.75;55.79;100662.53;4977145;28;20485;-58
2020/12/09 00:28:13;;;;;;;54.53;28.60;;;;;;;13.61;56.59;100659.16;4994830;28;20034;-61
2020/12/09 00:30:38;;;;;;;54.20;28.83;;;;;;;13.70;56.07;100674.97;4993553;28;20315;-60
2020/12/09 00:33:04;;;;;;;63.77;28.33;;;;;;;13.88;55.47;100680.41;5004889;28;20592;-60
2020/12/09 00:35:30;;;;;;;55.77;27.93;;;;;;;13.41;57.71;100674.56;5014535;28;20065;-61
2020/12/09 00:37:55;;;;;;;51.20;26.90;;;;;;;13.48;57.64;100678.06;5013825;28;20406;-59
2020/12/09 00:40:21;;;;;;;53.17;26.43;;;;;;;13.71;56.55;100677.44;4997184;28;20120;-61
2020/12/09 00:42:46;;;;;;;51.73;27.63;;;;;;;13.76;56.31;100688.38;5000313;28;20030;-60
2020/12/09 00:45:13;;;;;;;61.23;28.57;;;;;;;13.46;57.35;100677.44;4999338;28;20100;-60
2020/12/09 00:47:41;;;;;;;;;;;;;;;13.47;57.36;100681.78;4997138;28;20037;-61
2020/12/09 00:52:42;;;;;;;56.78;28.85;;;;;;;13.05;59.58;100669.63;4996947;28;20072;-60
2020/12/09 00:55:09;;;;;;;49.90;26.55;;;;;;;12.90;60.25;100671.78;4995946;28;20044;-59
2020/12/09 00:57:35;;;;;;;52.05;26.10;;;;;;;13.01;60.28;100670.28;5012740;28;20041;-61
2020/12/09 01:00:06;;;;;;;53.47;27.42;;;;;;;13.26;58.71;100680.22;5011275;28;20112;-61
2020/12/09 01:02:35;;;;;;;56.45;27.15;;;;;;;13.00;59.96;100685.56;4976346;28;20050;-60
2020/12/09 01:05:01;;;;;;;52.55;26.67;;;;;;;13.26;58.51;100682.91;4993830;28;20138;-59
2020/12/09 01:07:26;;;;;;;51.28;26.67;;;;;;;13.23;58.73;100694.09;4994005;28;20062;-60
2020/12/09 01:09:52;;;;;;;54.33;27.57;;;;;;;13.18;59.39;100695.56;4993643;28;20041;-58
2020/12/09 01:12:17;;;;;;;43.57;22.17;;;;;;;13.67;56.89;100683.50;4994290;28;20489;-61
2020/12/09 01:14:43;;;;;;;57.47;27.77;;;;;;;13.22;58.82;100684.41;4994152;28;20041;-61
2020/12/09 01:17:09;;;;;;;53.83;27.70;;;;;;;13.22;59.11;100704.03;4993196;28;20046;-60
2020/12/09 01:19:34;;;;;;;51.90;26.70;;;;;;;13.14;59.67;100701.59;5003705;28;20789;-60
2020/12/09 01:22:07;;;;;;;53.40;28.23;;;;;;;13.07;60.06;100708.88;5013034;28;20394;-61
2020/12/09 01:24:33;;;;;;;55.13;26.95;;;;;;;13.18;60.57;100705.50;5013501;28;20085;-60
2020/12/09 01:26:59;;;;;;;51.50;27.13;;;;;;;13.28;59.79;100705.84;5012575;28;20375;-61
2020/12/09 01:29:25;;;;;;;53.43;26.90;;;;;;;13.23;59.16;100700.31;4995240;28;20039;-62
2020/12/09 01:32:00;;;;;;;51.63;27.55;;;;;;;13.60;57.22;100697.78;4992498;28;20038;-60
2020/12/09 01:34:27;;;;;;;55.78;26.98;;;;;;;13.70;56.67;100697.28;4993401;28;20061;-60
2020/12/09 01:36:53;;;;;;;54.88;27.77;;;;;;;13.69;56.47;100695.66;4993119;28;20117;-58
2020/12/09 01:39:19;;;;;;;54.08;26.73;;;;;;;13.60;56.74;100707.72;4993831;28;20042;-60
2020/12/09 01:41:45;;;;;;;51.05;27.98;;;;;;;13.07;59.60;100695.44;4993649;28;20453;-61
2020/12/09 01:44:11;;;;;;;55.38;27.52;;;;;;;12.90;60.64;100709.34;4992986;28;20089;-60
2020/12/09 01:46:37;;;;;;;54.77;28.60;;;;;;;12.43;63.09;100705.00;4993198;28;20042;-61
2020/12/09 01:49:03;;;;;;;59.03;28.60;;;;;;;12.11;65.11;100709.41;4992655;28;20038;-60
2020/12/09 01:51:29;;;;;;;;;;;;;;;12.75;62.06;100715.84;4993784;28;20039;-60
2020/12/09 01:53:57;;;;;;;56.67;29.10;;;;;;;12.59;61.99;100697.53;4992564;28;20281;-59
2020/12/09 01:56:23;;;;;;;56.85;28.10;;;;;;;12.86;60.45;100700.94;4993363;28;20044;-60
2020/12/09 01:58:50;;;;;;;56.30;28.75;;;;;;;12.60;61.59;100709.91;4993353;28;20045;-60
2020/12/09 02:01:17;;;;;;;59.78;29.90;;;;;;;12.86;60.75;100703.63;4992352;28;20454;-60
2020/12/09 02:03:43;;;;;;;62.07;30.30;;;;;;;13.15;58.95;100714.81;4991964;28;20089;-60
2020/12/09 02:06:09;;;;;;;58.38;28.58;;;;;;;12.22;63.36;100705.25;4992390;28;20066;-60
2020/12/09 02:08:34;;;;;;;55.58;27.98;;;;;;;12.34;62.97;100717.00;4992915;28;20080;-60
2020/12/09 02:11:01;;;;;;;56.40;27.07;;;;;;;12.36;62.40;100714.13;4992346;28;20068;-61
2020/12/09 02:13:28;;;;;;;61.40;28.60;;;;;;;12.08;63.65;100707.97;4992896;28;20041;-62
2020/12/09 02:15:54;;;;;;;59.22;28.30;;;;;;;11.51;67.43;100719.06;4992650;28;20038;-59
2020/12/09 02:18:20;;;;;;;51.58;27.27;;;;;;;11.43;67.53;100703.22;4992995;28;20042;-60
2020/12/09 02:20:46;;;;;;;53.30;28.77;;;;;;;11.80;65.21;100708.16;4991674;28;20069;-60
2020/12/09 02:23:12;;;;;;;63.10;29.83;;;;;;;11.77;64.72;100696.03;4992114;28;20039;-60
2020/12/09 02:25:37;;;;;;;61.33;29.90;;;;;;;11.64;65.23;100712.09;4992770;28;20088;-60
2020/12/09 02:28:03;;;;;;;62.33;30.02;;;;;;;11.83;63.87;100707.75;4992357;28;20476;-60
2020/12/09 02:30:29;;;;;;;58.72;29.23;;;;;;;11.79;62.72;100704.69;4992954;28;20045;-60
2020/12/09 02:32:55;;;;;;;62.87;30.13;;;;;;;11.53;65.02;100706.31;4992808;28;20042;-60
2020/12/09 02:35:20;;;;;;;71.95;31.52;;;;;;;11.23;65.52;100708.56;4992637;28;20314;-59
2020/12/09 02:37:46;;;;;;;72.67;34.53;;;;;;;11.01;67.52;100706.84;4992759;28;20429;-60
2020/12/09 02:40:11;;;;;;;69.67;32.57;;;;;;;10.86;67.77;100704.31;4992380;28;20501;-60
2020/12/09 02:42:37;;;;;;;69.20;33.20;;;;;;;10.84;67.46;100703.69;4992925;28;20093;-60
2020/12/09 02:45:03;;;;;;;69.80;31.70;;;;;;;10.99;66.89;100706.22;4992040;28;20042;-62
2020/12/09 02:47:28;;;;;;;76.93;34.40;;;;;;;11.24;65.02;100708.34;4992653;28;20038;-62
2020/12/09 02:49:54;;;;;;;72.97;35.13;;;;;;;11.29;63.86;100711.22;4992821;28;20065;-60
2020/12/09 02:52:19;;;;;;;75.33;32.63;;;;;;;11.40;64.38;100714.34;4992222;28;20038;-60
2020/12/09 02:54:45;;;;;;;73.80;32.50;;;;;;;11.02;64.74;100711.16;4992507;28;20429;-60
2020/12/09 02:57:10;;;;;;;72.30;32.43;;;;;;;10.84;66.80;100710.88;4992137;28;20042;-60
2020/12/09 02:59:36;;;;;;;76.83;35.50;;;;;;;11.30;63.29;100731.63;4992741;28;20034;-61
2020/12/09 03:02:01;;;;;;;73.73;33.93;;;;;;;11.64;61.27;100712.91;4992190;28;20031;-61
2020/12/09 03:04:27;;;;;;;70.53;32.90;;;;;;;11.15;62.53;100714.91;4992786;28;20034;-61
2020/12/09 03:06:52;;;;;;;69.57;33.13;;;;;;;11.03;64.36;100712.81;4991918;28;20470;-61
2020/12/09 03:09:18;;;;;;;75.60;33.00;;;;;;;11.36;63.60;100729.16;4992535;28;20478;-60
2020/12/09 03:11:43;;;;;;;88.00;34.63;;;;;;;11.29;61.93;100721.13;4998088;28;20092;-59
2020/12/09 03:14:09;;;;;;;75.67;34.53;;;;;;;11.51;60.66;100719.06;5001561;28;20547;-61
2020/12/09 03:16:34;;;;;;;74.73;34.17;;;;;;;11.56;59.48;100727.34;5006686;28;20125;-60
2020/12/09 03:18:59;;;;;;;74.07;33.93;;;;;;;11.01;63.01;100725.56;4992287;28;20046;-59
2020/12/09 03:21:25;;;;;;;72.13;34.73;;;;;;;11.05;62.90;100731.34;4992574;28;20124;-60
2020/12/09 03:23:51;;;;;;;73.38;33.70;;;;;;;10.81;63.05;100719.31;4992862;28;20406;-59
2020/12/09 03:26:16;;;;;;;74.60;33.70;;;;;;;11.02;60.86;100713.84;4995471;28;20375;-61
2020/12/09 03:28:42;;;;;;;82.07;35.13;;;;;;;11.15;62.01;100730.97;5011107;28;20038;-61
2020/12/09 03:31:08;;;;;;;79.18;35.33;;;;;;;11.08;61.58;100727.47;5015007;28;20731;-59
2020/12/09 03:33:34;;;;;;;77.25;34.80;;;;;;;10.76;61.94;100728.78;5015677;28;20040;-59
2020/12/09 03:36:01;;;;;;;84.13;35.60;;;;;;;10.26;66.60;100710.16;5015278;28;20061;-60
2020/12/09 03:38:26;;;;;;;85.97;36.60;;;;;;;10.18;67.95;100729.03;5014394;28;20062;-60
2020/12/09 03:40:52;;;;;;;82.93;35.27;;;;;;;10.38;65.99;100739.03;4995798;28;20493;-60
2020/12/09 03:43:17;;;;;;;78.07;32.83;;;;;;;10.22;67.13;100732.97;4995207;28;20424;-60
2020/12/09 03:45:43;;;;;;;85.30;35.03;;;;;;;10.02;69.01;100747.00;4995631;28;20040;-60
2020/12/09 03:48:09;;;;;;;82.05;35.30;;;;;;;10.32;67.43;100743.31;4995346;28;20030;-60
2020/12/09 03:50:35;;;;;;;87.60;36.85;;;;;;;10.31;65.59;100744.34;4978482;28;20073;-60
2020/12/09 03:53:00;;;;;;;83.25;36.72;;;;;;;10.13;67.74;100747.50;4995357;28;20477;-58
2020/12/09 03:55:26;;;;;;;87.43;36.30;;;;;;;10.23;67.08;100756.00;4996001;28;20039;-61
2020/12/09 03:57:51;;;;;;;78.73;35.00;;;;;;;10.16;66.29;100739.94;5009463;28;20030;-60
2020/12/09 04:00:17;;;;;;;84.87;36.47;;;;;;;10.12;66.76;100741.34;5013939;28;20044;-60
2020/12/09 04:02:43;;;;;;;92.05;38.28;;;;;;;10.32;65.76;100743.31;5013716;28;20040;-61
2020/12/09 04:05:08;;;;;;;90.70;37.40;;;;;;;10.06;67.25;100742.13;5012284;28;20092;-61
2020/12/09 04:07:34;;;;;;;75.87;34.30;;;;;;;9.75;69.71;100749.47;5013839;28;20038;-62
2020/12/09 04:10:00;;;;;;;93.57;39.20;;;;;;;9.74;69.42;100744.34;5002667;28;20402;-59
2020/12/09 04:12:25;;;;;;;88.13;41.47;;;;;;;10.10;67.42;100748.72;4995315;28;20417;-59
2020/12/09 04:14:52;;;;;;;99.70;40.77;;;;;;;9.57;70.94;100741.94;4992932;28;20042;-61
2020/12/09 04:17:17;;;;;;;95.18;40.05;;;;;;;9.32;74.02;100752.97;4994687;28;20065;-61
2020/12/09 04:19:44;;;;;;;106.20;45.88;;;;;;;8.91;76.33;100742.84;4997825;28;20069;-62
2020/12/09 04:22:10;;;;;;;101.87;43.27;;;;;;;8.96;77.35;100745.78;4993145;28;20042;-61
2020/12/09 04:24:35;;;;;;;99.37;42.13;;;;;;;9.25;74.29;100748.56;4994403;28;20278;-62
2020/12/09 04:27:01;;;;;;;107.60;43.43;;;;;;;9.14;75.41;100765.91;4993776;28;20126;-61
2020/12/09 04:29:26;;;;;;;105.27;44.50;;;;;;;9.11;76.60;100759.13;4993626;28;20030;-61
2020/12/09 04:31:51;;;;;;;107.20;46.07;;;;;;;9.40;73.32;100759.19;5001212;28;20426;-61
2020/12/09 04:34:19;;;;;;;116.77;47.27;;;;;;;9.86;70.34;100761.47;4979123;28;20504;-61
2020/12/09 04:36:46;;;;;;;123.38;48.75;;;;;;;9.74;71.96;100752.34;4996634;28;20100;-61
2020/12/09 04:39:12;;;;;;;114.00;46.83;;;;;;;9.51;73.79;100755.19;4975306;28;20465;-60
2020/12/09 04:41:37;;;;;;;116.40;45.97;;;;;;;9.83;72.15;100767.22;4987857;28;20073;-61
2020/12/09 04:44:03;;;;;;;138.60;50.90;;;;;;;10.10;70.28;100756.72;5013035;28;20433;-56
2020/12/09 04:46:30;;;;;;;239.70;52.58;;;;;;;10.11;69.62;100761.06;5013023;28;20038;-60
2020/12/09 04:48:59;;;;;;;262.20;56.22;;;;;;;10.53;67.24;100758.50;4995415;28;20068;-60
2020/12/09 04:51:58;;;;;;;318.05;54.10;;;;;;;10.54;66.02;100754.81;5012579;28;20041;-61
2020/12/09 04:54:37;;;;;;;273.02;46.92;;;;;;;10.26;70.15;100774.31;4975845;28;20054;-61
2020/12/09 04:57:28;;;;;;;263.60;48.63;;;;;;;10.35;67.82;100768.84;5013057;28;20178;-60
2020/12/09 05:00:00;;;;;;;312.33;49.10;;;;;;;10.28;68.14;100771.47;4997394;28;20125;-60
2020/12/09 05:02:50;;;;;;;339.33;50.20;;;;;;;10.29;68.33;100773.94;4994510;28;20050;-59
2020/12/09 05:05:18;;;;;;;392.55;51.88;;;;;;;9.80;71.57;100778.28;4995266;28;20038;-61
2020/12/09 05:07:52;;;;;;;307.30;48.83;;;;;;;9.58;71.90;100780.16;5000081;28;20079;-60
2020/12/09 05:10:20;;;;;;;284.88;47.90;;;;;;;9.85;70.41;100780.38;5012306;28;20099;-59
2020/12/09 05:12:50;;;;;;;245.32;49.00;;;;;;;10.26;67.20;100787.69;5003125;28;20035;-60
2020/12/09 05:15:20;;;;;;;254.30;46.40;;;;;;;10.13;67.99;100782.25;4992599;28;20338;-59
2020/12/09 05:18:03;;;;;;;258.88;46.88;;;;;;;10.13;67.73;100790.28;4991228;28;20351;-60
2020/12/09 05:20:31;;;;;;;248.07;44.22;;;;;;;9.78;69.51;100799.03;4995368;28;20525;-60
2020/12/09 05:22:57;;;;;;;214.35;38.85;;;;;;;9.72;68.97;100797.13;5012299;28;20038;-60
2020/12/09 05:25:24;;;;;;;267.05;42.30;;;;;;;9.51;68.94;100801.44;5010945;28;20030;-59
2020/12/09 05:27:51;;;;;;;257.75;41.72;;;;;;;9.24;68.87;100801.13;5000888;28;20465;-61
2020/12/09 05:30:41;;;;;;;282.98;44.85;;;;;;;9.08;71.83;100806.69;5012013;28;20133;-60
2020/12/09 05:33:08;;;;;;;170.70;34.90;;;;;;;8.82;71.42;100808.81;5010528;28;20131;-59
2020/12/09 05:35:34;;;;;;;153.73;35.88;;;;;;;9.33;69.25;100805.34;5005957;28;20116;-60
2020/12/09 05:38:10;;;;;;;281.57;45.77;;;;;;;8.95;71.34;100796.66;4995135;28;20065;-61
2020/12/09 05:40:38;;;;;;;276.23;45.00;;;;;;;9.11;70.45;100808.97;5012825;28;20041;-61
2020/12/09 05:43:04;;;;;;;186.10;40.20;;;;;;;9.07;68.58;100803.16;5012936;28;20492;-61
2020/12/09 05:45:29;;;;;;;314.50;47.13;;;;;;;8.73;70.62;100810.72;4994344;28;20042;-60
2020/12/09 05:48:28;;;;;;;161.17;37.63;;;;;;;8.93;67.70;100804.84;5011220;28;20541;-60
2020/12/09 05:50:56;;;;;;;152.77;39.28;;;;;;;9.21;68.08;100800.69;5012365;28;20049;-60
2020/12/09 05:53:24;;;;;;;239.25;45.10;;;;;;;8.64;69.15;100805.66;5012292;28;20120;-60
2020/12/09 05:55:54;;;;;;;241.35;43.88;;;;;;;9.03;70.00;100804.56;4995161;28;20365;-61
2020/12/09 05:58:25;;;;;;;208.27;43.83;;;;;;;8.64;70.67;100811.84;5008426;28;20171;-62
2020/12/09 06:01:13;;;;;;;262.30;47.30;;;;;;;8.93;69.69;100820.84;5003203;28;20057;-60
2020/12/09 06:03:42;;;;;;;341.58;48.20;;;;;;;8.80;69.95;100818.03;4991470;28;20101;-60
2020/12/09 06:06:09;;;;;;;258.77;43.03;;;;;;;8.20;73.95;100817.91;4988836;28;20116;-58
2020/12/09 06:08:40;;;;;;;247.83;45.77;;;;;;;8.26;71.87;100801.19;5005642;28;20041;-61
2020/12/09 06:11:06;;;;;;;316.50;52.10;;;;;;;7.92;75.75;100811.28;5007542;28;20121;-60
2020/12/09 06:13:33;;;;;;;181.15;37.45;;;;;;;8.45;72.98;100815.84;4994577;28;20133;-60
2020/12/09 06:16:03;;;;;;;272.40;51.40;;;;;;;8.60;70.78;100816.69;5012550;28;20038;-60
2020/12/09 06:18:31;;;;;;;314.27;52.42;;;;;;;8.43;71.17;100821.34;5011454;28;20092;-60
2020/12/09 06:20:57;;;;;;;333.48;55.03;;;;;;;8.45;72.30;100818.50;5010788;28;20046;-60
2020/12/09 06:23:26;;;;;;;;;;;;;;;8.33;73.16;100818.94;5011861;28;20126;-59
2020/12/09 06:25:51;;;;;;;253.60;44.60;;;;;;;8.11;75.45;100814.47;5012148;28;19921;-61
2020/12/09 06:28:19;;;;;;;287.93;53.20;;;;;;;8.00;74.68;100826.38;5011591;28;20040;-61
2020/12/09 06:30:46;;;;;;;181.63;45.53;;;;;;;8.54;71.52;100832.63;5008500;28;20042;-60
2020/12/09 06:33:12;;;;;;;216.75;48.35;;;;;;;8.28;72.74;100829.31;5000239;28;20041;-62
2020/12/09 06:35:38;;;;;;;218.23;45.35;;;;;;;8.09;73.30;100828.00;5002069;28;20077;-60
2020/12/09 06:38:07;;;;;;;224.63;47.75;;;;;;;8.45;71.71;100835.31;4994241;28;20096;-60
2020/12/09 06:40:34;;;;;;;252.80;50.80;;;;;;;8.39;70.58;100836.06;5011107;28;20038;-61
2020/12/09 06:43:11;;;;;;;212.52;44.35;;;;;;;8.23;74.20;100834.38;5011935;28;20172;-60
2020/12/09 06:45:44;;;;;;;229.40;45.20;;;;;;;7.92;73.55;100850.44;4994035;28;20041;-61
2020/12/09 06:48:13;;;;;;;251.18;47.53;;;;;;;7.80;74.65;100856.16;5008091;28;20042;-60
2020/12/09 06:50:39;;;;;;;213.20;45.75;;;;;;;7.70;76.85;100860.88;5001647;28;20038;-61
2020/12/09 06:53:23;;;;;;;276.37;45.37;;;;;;;7.57;76.00;100858.78;4991712;28;20100;-62
2020/12/09 06:55:50;;;;;;;194.35;44.63;;;;;;;7.83;74.55;100849.66;4991045;28;20299;-61
2020/12/09 06:58:22;;;;;;;249.13;47.65;;;;;;;7.57;75.47;100851.63;5001720;28;20038;-60
2020/12/09 07:01:00;;;;;;;275.23;51.58;;;;;;;7.48;75.40;100855.34;4995267;28;20034;-61
2020/12/09 07:03:28;;;;;;;196.90;48.45;;;;;;;7.68;73.30;100854.91;5004589;28;20196;-60
2020/12/09 07:05:54;;;;;;;187.38;44.53;;;;;;;8.35;69.73;100842.75;4985730;28;20041;-60
2020/12/09 07:08:20;;;;;;;283.27;51.38;;;;;;;8.12;70.44;100864.94;4995034;28;20382;-59
2020/12/09 07:10:46;;;;;;;185.52;43.30;;;;;;;7.51;71.15;100857.66;4995039;28;20043;-59
2020/12/09 07:13:18;;;;;;;241.47;48.20;;;;;;;6.81;74.88;100853.94;5000918;28;20033;-61
2020/12/09 07:15:49;;;;;;;225.63;45.63;;;;;;;6.90;75.82;100868.84;5014616;28;20289;-60
2020/12/09 07:18:15;;;;;;;223.98;46.35;;;;;;;7.25;73.10;100865.91;5013980;28;20119;-56
2020/12/09 07:20:41;;;;;;;167.13;46.45;;;;;;;7.41;73.58;100855.22;5013068;28;20481;-60
2020/12/09 07:23:07;;;;;;;232.95;50.78;;;;;;;7.47;70.82;100848.38;5010108;28;20132;-60
2020/12/09 07:25:34;;;;;;;267.20;50.20;;;;;;;7.43;71.68;100855.84;4980102;28;20401;-60
2020/12/09 07:28:01;;;;;;;342.40;57.75;;;;;;;6.84;76.74;100859.75;4978282;28;20049;-61
2020/12/09 07:30:26;;;;;;;264.92;49.70;;;;;;;7.27;74.26;100845.31;4994842;28;20501;-61
2020/12/09 07:32:54;;;;;;;258.77;46.00;;;;;;;6.77;76.93;100871.22;4995320;28;20030;-61
2020/12/09 07:35:20;;;;;;;254.45;49.10;;;;;;;6.57;78.30;100848.53;4994288;28;20446;-61
2020/12/09 07:37:51;;;;;;;338.50;58.72;;;;;;;6.60;78.91;100865.94;4977413;28;20045;-61
2020/12/09 07:40:32;;;;;;;316.13;54.45;;;;;;;6.85;75.74;100852.59;4994093;28;20043;-57
2020/12/09 07:43:09;;;;;;;355.35;63.15;;;;;;;6.59;77.17;100873.09;4995104;28;20101;-60
2020/12/09 07:45:42;;;;;;;240.85;48.92;;;;;;;6.36;79.42;100859.66;4992747;28;20053;-61
2020/12/09 07:48:12;;;;;;;266.95;51.70;;;;;;;6.66;77.32;100862.59;4994887;28;20069;-61
2020/12/09 07:50:39;;;;;;;260.13;55.80;;;;;;;6.90;76.15;100860.88;4994192;28;20180;-60
2020/12/09 07:53:11;;;;;;;265.50;54.05;;;;;;;6.71;76.99;100873.56;5005249;28;20076;-60
2020/12/09 07:55:37;;;;;;;241.73;52.78;;;;;;;6.26;80.81;100859.00;5013938;28;20235;-61
2020/12/09 07:58:04;;;;;;;272.05;47.90;;;;;;;6.39;79.18;100883.22;5001015;28;20493;-60
2020/12/09 08:00:35;;;;;;;208.75;45.25;;;;;;;6.78;77.55;100868.38;5012357;28;20042;-60
2020/12/09 08:03:01;;;;;;;190.23;43.30;;;;;;;6.40;77.74;100884.88;5013151;28;20120;-60
2020/12/09 08:05:27;;;;;;;148.17;36.03;;;;;;;6.25;77.97;100887.38;4978957;28;20045;-60
2020/12/09 08:07:58;;;;;;;188.98;41.75;;;;;;;6.02;80.25;100901.28;5012978;28;20033;-62
2020/12/09 08:10:31;;;;;;;144.63;40.83;;;;;;;6.60;77.54;100892.50;5013306;28;20037;-60
2020/12/09 08:13:03;;;;;;;211.98;45.95;;;;;;;6.50;78.50;100894.53;5012528;28;20049;-61
2020/12/09 08:15:29;;;;;;;188.63;42.60;;;;;;;6.57;76.73;100906.13;5012510;28;20551;-62
2020/12/09 08:17:54;;;;;;;189.57;44.47;;;;;;;6.09;81.43;100912.09;5013633;28;20042;-61
2020/12/09 08:20:20;;;;;;;141.53;40.47;;;;;;;6.54;79.04;100901.16;5012727;28;20042;-60
2020/12/09 08:23:03;;;;;;;136.37;37.40;;;;;;;6.46;79.56;100907.31;5013517;28;20034;-61
2020/12/09 08:25:31;;;;;;;161.35;37.50;;;;;;;6.59;78.11;100902.31;4995479;28;20228;-60
2020/12/09 08:28:05;;;;;;;151.25;37.90;;;;;;;6.36;81.58;100902.16;5012473;28;20042;-60
2020/12/09 08:30:31;;;;;;;193.48;43.97;;;;;;;6.66;79.62;100905.13;5013152;28;20065;-61
2020/12/09 08:32:58;;;;;;;164.07;43.60;;;;;;;6.53;80.07;100895.00;5013296;28;20481;-60
2020/12/09 08:35:24;;;;;;;;;;;;;;;6.63;80.54;100891.34;5013006;28;20118;-59
2020/12/09 08:37:50;;;;;;;145.63;40.40;;;;;;;6.97;76.98;100880.50;5013665;28;20337;-61
2020/12/09 08:40:15;;;;;;;177.25;43.38;;;;;;;6.61;78.37;100864.94;5013594;28;20049;-61
2020/12/09 08:42:52;;;;;;;149.57;40.27;;;;;;;6.48;81.14;100888.56;5013040;28;20121;-61
2020/12/09 08:45:18;;;;;;;128.50;38.60;;;;;;;7.00;77.23;100880.16;4996466;28;20318;-60
2020/12/09 08:47:44;;;;;;;122.90;38.72;;;;;;;6.88;77.20;100881.50;5012005;28;20085;-61
2020/12/09 08:50:09;;;;;;;159.75;40.42;;;;;;;6.95;77.42;100879.84;5012974;28;20033;-61
2020/12/09 08:52:35;;;;;;;162.80;40.27;;;;;;;6.68;78.34;100876.53;5012641;28;20038;-60
2020/12/09 08:55:01;;;;;;;191.73;43.40;;;;;;;6.73;79.35;100884.03;5013300;28;20041;-60
2020/12/09 08:57:27;;;;;;;225.15;43.13;;;;;;;6.62;78.99;100887.84;4993944;28;20490;-61
2020/12/09 08:59:52;;;;;;;250.10;39.70;;;;;;;6.27;80.99;100888.03;5014051;28;20045;-62
2020/12/09 09:02:18;;;;;;;178.10;41.80;;;;;;;6.30;81.18;100886.88;5012873;28;20100;-61
2020/12/09 09:04:43;;;;;;;138.13;37.17;;;;;;;6.99;77.44;100883.81;5012158;28;20038;-60
2020/12/09 09:07:09;;;;;;;170.70;36.70;;;;;;;6.42;80.61;100872.25;5013473;28;20129;-61
2020/12/09 09:09:35;;;;;;;153.10;37.63;;;;;;;6.56;81.07;100877.91;5012168;28;20034;-61
2020/12/09 09:12:00;;;;;;;163.25;40.20;;;;;;;6.59;81.23;100877.56;4976869;28;20049;-60
2020/12/09 09:14:26;;;;;;;207.30;42.13;;;;;;;6.94;78.47;100864.88;4994776;28;20038;-61
2020/12/09 09:16:53;;;;;;;174.48;39.60;;;;;;;7.10;77.64;100887.09;5014479;28;20057;-60
2020/12/09 09:19:18;;;;;;;182.23;43.28;;;;;;;7.03;76.58;100879.81;5014935;28;20169;-61
2020/12/09 09:21:44;;;;;;;147.00;39.93;;;;;;;6.60;80.70;100879.22;5013202;28;20153;-60
2020/12/09 09:24:09;;;;;;;163.13;40.33;;;;;;;6.87;78.88;100887.81;5006347;28;20065;-61
2020/12/09 09:26:35;;;;;;;153.20;37.47;;;;;;;6.51;81.27;100875.75;4992621;28;20081;-61
2020/12/09 09:29:01;;;;;;;161.25;40.50;;;;;;;6.89;79.22;100893.78;4975365;28;20076;-62
2020/12/09 09:31:27;;;;;;;150.10;38.35;;;;;;;7.16;77.87;100889.09;4991820;28;20066;-59
2020/12/09 09:33:52;;;;;;;132.77;35.40;;;;;;;7.14;76.46;100883.06;5003088;28;20113;-60
2020/12/09 09:36:18;;;;;;;142.67;39.80;;;;;;;6.88;78.75;100882.34;4994863;28;20076;-61
2020/12/09 09:38:43;;;;;;;166.90;40.63;;;;;;;6.87;79.17;100890.47;5011655;28;20478;-61
2020/12/09 09:41:09;;;;;;;123.37;35.57;;;;;;;6.89;78.83;100872.50;5012535;28;20042;-61
2020/12/09 09:43:35;;;;;;;173.93;41.30;;;;;;;7.20;77.68;100885.06;5011050;28;20053;-60
2020/12/09 09:46:01;;;;;;;121.73;38.90;;;;;;;7.59;76.02;100878.06;5012443;28;20068;-62
2020/12/09 09:48:26;;;;;;;134.82;38.83;;;;;;;7.39;77.17;100898.97;5011928;28;20091;-60
2020/12/09 09:50:52;;;;;;;161.00;39.10;;;;;;;7.36;76.15;100884.19;4993227;28;20038;-60
2020/12/09 09:53:17;;;;;;;158.47;36.23;;;;;;;7.42;75.79;100899.44;4994526;28;20041;-60
2020/12/09 09:55:43;;;;;;;151.53;34.80;;;;;;;7.23;76.12;100882.06;5011091;28;20243;-60
2020/12/09 09:58:08;;;;;;;134.83;36.17;;;;;;;7.43;76.84;100900.28;5011301;28;20183;-61
2020/12/09 10:00:34;;;;;;;136.50;36.77;;;;;;;6.99;79.85;100889.13;4993889;28;20441;-61
2020/12/09 10:02:59;;;;;;;203.30;43.00;;;;;;;7.24;78.28;100899.69;4992579;28;20046;-60
2020/12/09 10:05:25;;;;;;;176.00;43.77;;;;;;;6.96;79.32;100873.50;5008511;28;20042;-60
2020/12/09 10:07:51;;;;;;;161.30;40.50;;;;;;;7.21;77.75;100878.75;4990278;28;20041;-61
2020/12/09 10:10:16;;;;;;;182.52;41.03;;;;;;;6.73;83.22;100882.22;5002549;28;20046;-61
2020/12/09 10:12:42;;;;;;;182.60;43.47;;;;;;;7.16;80.41;100897.06;5009386;28;20149;-61
2020/12/09 10:15:07;;;;;;;221.07;45.07;;;;;;;6.99;80.82;100906.91;4992234;28;20058;-62
2020/12/09 10:17:32;;;;;;;180.33;43.10;;;;;;;7.19;79.64;100894.06;4990922;28;20051;-60
2020/12/09 10:19:59;;;;;;;173.30;41.93;;;;;;;7.58;76.63;100900.38;4991932;28;20042;-61
2020/12/09 10:22:25;;;;;;;168.73;41.80;;;;;;;7.01;80.90;100895.09;4991340;28;20038;-58
2020/12/09 10:24:51;;;;;;;183.48;45.38;;;;;;;7.40;79.90;100896.13;4991848;28;20124;-61
2020/12/09 10:27:16;;;;;;;238.47;38.83;;;;;;;7.06;81.85;100883.97;5001106;28;20034;-61
2020/12/09 10:29:42;;;;;;;150.07;36.87;;;;;;;7.70;78.71;100874.19;4998706;28;20224;-61
2020/12/09 10:32:08;;;;;;;178.90;41.40;;;;;;;7.93;75.96;100881.38;4991659;28;20049;-60
2020/12/09 10:34:35;;;;;;;162.50;40.85;;;;;;;8.31;73.45;100886.75;4990782;28;20346;-62
2020/12/09 10:37:01;;;;;;;148.93;40.72;;;;;;;7.86;75.99;100890.06;4990663;28;20092;-61
2020/12/09 10:39:26;;;;;;;146.60;37.63;;;;;;;7.20;79.38;100878.91;4990954;28;20117;-61
2020/12/09 10:41:52;;;;;;;215.20;48.43;;;;;;;7.42;78.58;100867.50;4958168;28;20046;-62
2020/12/09 10:44:19;;;;;;;166.13;39.58;;;;;;;7.17;80.22;100861.47;4992080;28;20069;-61
2020/12/09 10:46:45;;;;;;;148.02;40.28;;;;;;;6.71;84.31;100849.66;4991212;28;20369;-61
2020/12/09 10:49:12;;;;;;;135.90;35.45;;;;;;;6.81;82.63;100859.25;4991950;28;20042;-62
2020/12/09 10:51:48;;;;;;;149.20;37.00;;;;;;;7.24;80.09;100865.09;4991156;28;20132;-60
2020/12/09 10:54:15;;;;;;;163.80;43.20;;;;;;;7.00;82.22;100864.19;4992100;28;20043;-62
2020/12/09 10:56:40;;;;;;;;;;;;;;;7.20;81.53;100874.44;4992752;28;20045;-61
2020/12/09 10:59:06;;;;;;;175.30;45.67;;;;;;;7.36;80.34;100870.88;4991460;28;19926;-60
2020/12/09 11:01:32;;;;;;;212.67;50.27;;;;;;;7.27;80.69;100864.75;5008292;28;20084;-60
2020/12/09 11:03:59;;;;;;;232.25;41.63;;;;;;;7.00;83.10;100868.66;4993778;28;20042;-60
2020/12/09 11:06:28;;;;;;;;;;;;;;;7.51;79.75;100870.97;4995492;28;20096;-58
2020/12/09 11:08:56;;;;;;;159.65;41.88;;;;;;;7.12;81.57;100866.47;5009864;28;19920;-61
2020/12/09 11:11:22;;;;;;;162.30;40.65;;;;;;;6.99;81.59;100854.56;5000841;28;20052;-61
2020/12/09 11:13:48;;;;;;;125.30;35.67;;;;;;;6.67;83.86;100858.94;4990535;28;20046;-60
2020/12/09 11:16:20;;;;;;;129.23;35.63;;;;;;;7.10;80.64;100871.97;4992166;28;20256;-62